createdAt,value
2023-05-13T00:02:56.364Z,14.39
2023-05-13T00:06:00.749Z,14.32
2023-05-13T00:08:37.688Z,14.25
2023-05-13T00:11:13.405Z,14.20
2023-05-13T00:13:57.668Z,14.24
2023-05-13T00:17:00.149Z,14.31
2023-05-13T00:19:48.065Z,14.36
2023-05-13T00:22:41.788Z,14.38
2023-05-13T00:25:49.137Z,14.38
2023-05-13T00:28:50.678Z,14.37
2023-05-13T00:32:04.912Z,14.36
2023-05-13T00:34:50.532Z,14.39
2023-05-13T00:37:45.417Z,14.39
2023-05-13T00:40:48.019Z,14.40
2023-05-13T00:43:32.813Z,14.39
2023-05-13T00:46:09.400Z,14.36
2023-05-13T00:48:55.782Z,14.31
2023-05-13T00:52:04.190Z,14.26
2023-05-13T00:56:07.462Z,14.12
2023-05-13T00:59:34.520Z,14.10
2023-05-13T01:03:03.227Z,14.03
2023-05-13T01:14:34.024Z,13.89
2023-05-13T01:17:27.911Z,13.82
2023-05-13T01:20:05.534Z,13.77
2023-05-13T01:23:41.057Z,13.75
2023-05-13T01:26:24.278Z,13.73
2023-05-13T01:29:06.656Z,13.70
2023-05-13T01:32:15.991Z,13.69
2023-05-13T01:35:21.576Z,13.67
2023-05-13T01:38:03.254Z,13.67
2023-05-13T01:40:49.902Z,13.66
2023-05-13T01:43:22.597Z,13.66
2023-05-13T01:46:24.436Z,13.64
2023-05-13T01:48:59.211Z,13.61
2023-05-13T01:51:38.776Z,13.56
2023-05-13T01:54:26.801Z,13.55
2023-05-13T01:57:11.435Z,13.54
2023-05-13T01:59:49.075Z,13.53
2023-05-13T02:05:41.538Z,13.54
2023-05-13T02:09:05.732Z,13.53
2023-05-13T02:11:45.852Z,13.54
2023-05-13T02:14:46.716Z,13.54
2023-05-13T02:17:23.252Z,13.56
2023-05-13T02:20:20.120Z,13.54
2023-05-13T02:22:53.074Z,13.55
2023-05-13T02:25:39.828Z,13.54
2023-05-13T02:28:15.000Z,13.54
2023-05-13T02:31:12.235Z,13.56
2023-05-13T02:34:26.569Z,13.59
2023-05-13T02:37:25.434Z,13.62
2023-05-13T02:40:09.967Z,13.63
2023-05-13T02:43:18.280Z,13.64
2023-05-13T02:46:03.334Z,13.67
2023-05-13T02:48:58.771Z,13.70
2023-05-13T02:51:43.057Z,13.74
2023-05-13T02:54:20.875Z,13.74
2023-05-13T02:57:01.845Z,13.72
2023-05-13T03:00:08.727Z,13.77
2023-05-13T03:06:32.957Z,13.84
2023-05-13T03:12:36.071Z,13.92
2023-05-13T03:15:52.286Z,13.91
2023-05-13T03:18:37.931Z,13.95
2023-05-13T03:21:52.143Z,13.95
2023-05-13T03:24:29.150Z,13.98
2023-05-13T03:27:51.626Z,14.03
2023-05-13T03:30:57.684Z,14.11
2023-05-13T03:34:09.228Z,14.01
2023-05-13T03:36:52.623Z,14.27
2023-05-13T03:39:48.224Z,14.36
2023-05-13T03:43:18.696Z,14.44
2023-05-13T03:45:59.847Z,14.51
2023-05-13T03:48:31.285Z,14.51
2023-05-13T03:51:04.610Z,14.55
2023-05-13T03:53:38.772Z,14.59
2023-05-13T03:56:17.098Z,14.62
2023-05-13T03:58:49.567Z,14.64
2023-05-13T04:08:20.139Z,14.77
2023-05-13T04:11:21.405Z,14.81
2023-05-13T04:16:53.104Z,14.97
2023-05-13T04:22:25.692Z,15.03
2023-05-13T04:25:24.700Z,15.08
2023-05-13T04:28:57.212Z,15.16
2023-05-13T04:32:05.180Z,15.19
2023-05-13T04:46:46.728Z,15.51
2023-05-13T04:50:36.029Z,15.64
2023-05-13T04:53:58.430Z,15.69
2023-05-13T04:56:44.612Z,15.69
2023-05-13T05:00:02.292Z,15.75
2023-05-13T05:03:06.448Z,15.73
2023-05-13T05:06:17.185Z,15.77
2023-05-13T05:09:24.572Z,15.96
2023-05-13T05:19:57.638Z,16.66
2023-05-13T05:23:03.940Z,16.82
2023-05-13T05:26:20.484Z,16.90
2023-05-13T05:29:12.652Z,16.92
2023-05-13T05:31:59.821Z,16.89
2023-05-13T05:35:50.003Z,16.84
2023-05-13T05:38:45.050Z,16.78
2023-05-13T05:41:58.034Z,16.91
2023-05-13T05:44:48.618Z,16.93
2023-05-13T05:47:34.443Z,17.01
2023-05-13T05:50:39.027Z,17.26
2023-05-13T05:53:15.241Z,17.34
2023-05-13T05:56:58.165Z,17.52
2023-05-13T05:59:29.297Z,17.70
2023-05-13T06:05:26.458Z,18.00
2023-05-13T06:08:38.297Z,18.20
2023-05-13T06:11:19.835Z,18.43
2023-05-13T06:14:06.138Z,18.55
2023-05-13T06:17:00.459Z,18.62
2023-05-13T06:19:39.588Z,18.82
2023-05-13T06:22:44.343Z,19.12
2023-05-13T06:25:48.674Z,19.37
2023-05-13T06:29:30.341Z,19.53
2023-05-13T06:32:25.706Z,19.62
2023-05-13T06:35:14.948Z,19.66
2023-05-13T06:49:02.634Z,19.59
2023-05-13T06:51:58.800Z,19.67
2023-05-13T06:57:41.806Z,19.80
2023-05-13T07:01:12.487Z,19.91
2023-05-13T07:04:14.818Z,20.09
2023-05-13T07:07:30.411Z,20.23
2023-05-13T07:17:48.078Z,20.30
2023-05-13T07:21:24.542Z,20.25
2023-05-13T08:00:00.912Z,21.24
2023-05-13T08:26:52.030Z,21.79
2023-05-13T08:29:49.528Z,22.09
2023-05-13T08:36:41.043Z,22.10
2023-05-13T08:39:38.801Z,22.19
2023-05-13T08:49:41.868Z,22.50
2023-05-13T08:53:16.971Z,22.45
2023-05-13T08:56:33.029Z,22.35
2023-05-13T08:59:18.628Z,22.33
2023-05-13T09:06:46.282Z,22.40
2023-05-13T09:17:32.567Z,22.33
2023-05-13T09:21:07.980Z,22.15
2023-05-13T09:24:24.898Z,21.99
2023-05-13T09:38:53.908Z,21.71
2023-05-13T09:45:47.151Z,21.77
2023-05-13T09:49:07.652Z,21.81
2023-05-13T10:06:04.953Z,22.23
2023-05-13T10:10:02.574Z,22.24
2023-05-13T10:29:09.644Z,23.52
2023-05-13T10:39:26.036Z,24.02
2023-05-13T11:03:37.044Z,24.70
2023-05-13T11:10:05.450Z,24.83
2023-05-13T11:13:20.579Z,24.87
2023-05-13T11:16:01.659Z,24.80
2023-05-13T11:21:49.968Z,24.79
2023-05-13T11:24:36.224Z,24.74
2023-05-13T11:31:32.592Z,24.98
2023-05-13T11:34:47.063Z,24.93
2023-05-13T11:40:45.583Z,24.89
2023-05-13T11:43:53.301Z,24.87
2023-05-13T11:46:32.329Z,24.73
2023-05-13T11:49:30.174Z,24.56
2023-05-13T11:53:05.351Z,24.38
2023-05-13T11:56:16.850Z,24.24
2023-05-13T11:59:00.955Z,24.21
2023-05-13T12:01:39.562Z,24.26
2023-05-13T12:05:00.451Z,24.29
2023-05-13T12:08:23.634Z,24.51
2023-05-13T12:11:31.064Z,24.65
2023-05-13T12:18:18.609Z,24.79
2023-05-13T12:21:03.414Z,24.67
2023-05-13T12:24:02.526Z,24.57
2023-05-13T12:27:03.553Z,24.53
2023-05-13T12:29:50.632Z,24.57
2023-05-13T12:36:40.125Z,24.44
2023-05-13T12:43:00.648Z,24.54
2023-05-13T12:46:20.220Z,24.47
2023-05-13T12:50:01.037Z,24.35
2023-05-13T12:53:04.724Z,24.31
2023-05-13T12:56:18.648Z,24.32
2023-05-13T12:59:31.857Z,24.37
2023-05-13T13:10:36.426Z,24.47
2023-05-13T13:13:33.631Z,24.44
2023-05-13T13:16:39.696Z,24.41
2023-05-13T13:20:12.504Z,24.47
2023-05-13T13:23:36.812Z,24.61
2023-05-13T13:27:04.274Z,24.72
2023-05-13T13:36:48.681Z,24.98
2023-05-13T13:43:45.173Z,25.07
2023-05-13T13:59:32.745Z,25.61
2023-05-13T14:07:55.927Z,25.87
2023-05-13T14:18:48.879Z,26.26
2023-05-13T14:21:36.891Z,26.38
2023-05-13T14:29:31.233Z,26.23
2023-05-13T14:40:47.963Z,26.08
2023-05-13T14:47:42.034Z,25.82
2023-05-13T14:50:57.563Z,25.69
2023-05-13T14:54:02.768Z,25.80
2023-05-13T15:01:21.919Z,26.20
2023-05-13T15:04:33.545Z,26.29
2023-05-13T15:07:21.458Z,26.37
2023-05-13T15:10:14.799Z,26.37
2023-05-13T15:13:00.472Z,26.25
2023-05-13T15:16:00.221Z,26.22
2023-05-13T15:18:56.715Z,26.21
2023-05-13T15:21:45.908Z,26.13
2023-05-13T15:24:45.219Z,26.05
2023-05-13T15:28:13.804Z,26.03
2023-05-13T15:35:23.979Z,26.14
2023-05-13T15:38:25.681Z,26.12
2023-05-13T16:58:11.155Z,22.50
2023-05-13T17:01:25.262Z,22.41
2023-05-13T18:43:05.590Z,20.08
2023-05-13T18:50:07.293Z,19.97
2023-05-13T18:56:49.738Z,19.87
2023-05-13T19:03:18.564Z,19.85
2023-05-13T19:06:00.381Z,19.85
2023-05-13T19:09:20.940Z,19.85
2023-05-13T19:16:01.759Z,19.72
2023-05-13T19:26:39.828Z,19.32
2023-05-13T19:30:00.428Z,19.35
2023-05-13T19:36:12.274Z,19.29
2023-05-13T19:43:02.003Z,19.31
2023-05-13T19:45:39.922Z,19.26
2023-05-13T19:48:34.042Z,19.33
2023-05-13T19:54:54.292Z,19.32
2023-05-13T20:07:09.977Z,19.34
2023-05-13T20:10:06.561Z,19.29
2023-05-13T20:31:16.548Z,19.10
2023-05-13T20:38:57.529Z,19.00
2023-05-13T20:43:34.543Z,18.91
2023-05-13T20:46:29.274Z,18.97
2023-05-13T20:49:22.900Z,19.09
2023-05-13T20:53:12.086Z,19.09
2023-05-13T20:56:16.642Z,19.08
2023-05-13T20:59:17.285Z,19.05
2023-05-13T21:10:52.981Z,19.00
2023-05-13T21:15:04.228Z,18.86
2023-05-13T21:21:08.387Z,18.75
2023-05-13T21:23:57.732Z,18.81
2023-05-13T21:30:53.190Z,18.86
2023-05-13T21:59:06.263Z,18.87
2023-05-13T22:02:21.640Z,18.87
2023-05-13T22:05:44.619Z,18.89
2023-05-13T22:09:19.130Z,18.89
2023-05-13T22:12:12.704Z,18.88
2023-05-13T22:15:07.226Z,18.88
2023-05-13T22:21:19.622Z,18.94
2023-05-13T22:25:19.279Z,18.96
2023-05-13T22:35:02.656Z,18.87
2023-05-13T22:38:00.855Z,18.77
2023-05-13T22:41:38.151Z,18.71
2023-05-13T22:45:23.239Z,18.74
2023-05-13T22:48:45.205Z,18.84
2023-05-13T22:55:22.119Z,18.77
2023-05-13T22:59:04.141Z,18.67
2023-05-13T23:01:54.365Z,18.55
2023-05-13T23:04:59.847Z,18.51
2023-05-13T23:14:25.587Z,18.58
2023-05-13T23:17:14.546Z,18.63
2023-05-13T23:24:47.115Z,18.80
2023-05-13T23:27:57.804Z,18.83
2023-05-13T23:31:49.986Z,18.93
2023-05-13T23:41:32.955Z,18.93
2023-05-13T23:44:53.748Z,18.88
2023-05-13T23:52:02.455Z,18.93
2023-05-13T23:58:13.101Z,18.96
